createdAt,value
2018-05-23T00:02:12.072Z,14.60
2018-05-23T00:04:40.123Z,14.50
2018-05-23T00:07:08.185Z,14.60
2018-05-23T00:09:36.873Z,14.50
2018-05-23T00:12:04.935Z,14.50
2018-05-23T00:14:33.228Z,14.50
2018-05-23T00:17:01.397Z,14.70
2018-05-23T00:19:29.454Z,14.50
2018-05-23T00:21:57.523Z,14.60
2018-05-23T00:24:25.937Z,14.50
2018-05-23T00:26:54.002Z,14.40
2018-05-23T00:29:22.053Z,14.50
2018-05-23T00:31:50.450Z,14.60
2018-05-23T00:34:18.513Z,14.70
2018-05-23T00:36:46.561Z,14.70
2018-05-23T00:39:14.761Z,14.60
2018-05-23T00:41:42.803Z,14.60
2018-05-23T00:44:10.865Z,14.60
2018-05-23T00:46:39.032Z,14.60
2018-05-23T00:49:07.134Z,14.70
2018-05-23T00:51:35.195Z,14.70
2018-05-23T00:54:03.388Z,14.80
2018-05-23T00:56:31.441Z,14.90
2018-05-23T00:58:59.515Z,14.80
2018-05-23T01:01:28.206Z,14.90
2018-05-23T01:03:56.285Z,14.90
2018-05-23T01:06:24.342Z,14.80
2018-05-23T01:08:52.735Z,14.80
2018-05-23T01:11:20.801Z,14.80
2018-05-23T01:13:48.872Z,14.70
2018-05-23T01:16:17.308Z,14.70
2018-05-23T01:18:45.342Z,14.60
2018-05-23T01:21:13.448Z,14.60
2018-05-23T01:23:41.770Z,14.60
2018-05-23T01:26:09.835Z,14.70
2018-05-23T01:28:37.898Z,14.70
2018-05-23T01:31:06.292Z,14.70
2018-05-23T01:33:34.355Z,14.70
2018-05-23T01:36:02.420Z,14.70
2018-05-23T01:38:30.588Z,14.70
2018-05-23T01:40:58.652Z,14.70
2018-05-23T01:43:26.714Z,14.70
2018-05-23T01:45:55.049Z,14.70
2018-05-23T01:48:23.102Z,14.80
2018-05-23T01:50:51.154Z,14.80
2018-05-23T01:53:19.266Z,14.80
2018-05-23T01:55:47.320Z,14.70
2018-05-23T01:58:15.387Z,14.70
2018-05-23T02:00:43.759Z,14.60
2018-05-23T02:03:11.820Z,14.70
2018-05-23T02:05:40.035Z,14.70
2018-05-23T02:08:08.102Z,14.70
2018-05-23T02:10:36.173Z,14.60
2018-05-23T02:13:04.434Z,14.60
2018-05-23T02:15:32.497Z,14.50
2018-05-23T02:18:01.047Z,14.50
2018-05-23T02:20:29.264Z,14.50
2018-05-23T02:22:57.329Z,14.50
2018-05-23T02:25:25.395Z,14.50
2018-05-23T02:27:53.545Z,14.40
2018-05-23T02:30:21.617Z,14.40
2018-05-23T02:32:49.681Z,14.40
2018-05-23T02:35:17.833Z,14.30
2018-05-23T02:37:45.909Z,14.30
2018-05-23T02:40:13.958Z,14.30
2018-05-23T02:42:42.219Z,14.20
2018-05-23T02:45:10.300Z,14.20
2018-05-23T02:47:39.128Z,14.20
2018-05-23T02:50:07.302Z,14.20
2018-05-23T02:52:35.385Z,14.20
2018-05-23T02:55:03.443Z,14.20
2018-05-23T02:57:31.880Z,14.20
2018-05-23T02:59:59.933Z,14.10
2018-05-23T03:02:27.989Z,14.20
2018-05-23T03:04:56.372Z,14.20
2018-05-23T03:07:24.450Z,14.20
2018-05-23T03:09:52.510Z,14.20
2018-05-23T03:12:20.900Z,14.20
2018-05-23T03:14:48.974Z,14.20
2018-05-23T03:17:17.024Z,14.20
2018-05-23T03:19:45.382Z,14.30
2018-05-23T03:22:13.475Z,14.30
2018-05-23T03:24:41.508Z,14.40
2018-05-23T03:27:09.940Z,14.40
2018-05-23T03:29:38.013Z,14.50
2018-05-23T03:32:06.065Z,14.50
2018-05-23T03:34:34.464Z,14.50
2018-05-23T03:37:02.541Z,14.50
2018-05-23T03:39:30.596Z,14.50
2018-05-23T03:41:58.997Z,14.50
2018-05-23T03:44:27.061Z,14.50
2018-05-23T03:46:55.489Z,14.40
2018-05-23T03:49:23.834Z,14.50
2018-05-23T03:51:51.892Z,14.50
2018-05-23T03:54:19.954Z,14.50
2018-05-23T03:56:48.337Z,14.60
2018-05-23T03:59:16.398Z,14.50
2018-05-23T04:01:56.302Z,14.50
2018-05-23T04:04:36.152Z,14.50
2018-05-23T04:07:19.814Z,14.40
2018-05-23T04:09:47.936Z,14.50
2018-05-23T04:12:16.393Z,14.50
2018-05-23T04:14:44.466Z,14.40
2018-05-23T04:17:12.533Z,14.50
2018-05-23T04:19:40.917Z,14.50
2018-05-23T04:22:09.457Z,14.60
2018-05-23T04:24:37.517Z,14.70
2018-05-23T04:27:05.673Z,14.70
2018-05-23T04:29:33.743Z,14.60
2018-05-23T04:32:01.806Z,14.60
2018-05-23T04:34:30.259Z,14.60
2018-05-23T04:36:58.329Z,14.60
2018-05-23T04:39:26.441Z,14.60
2018-05-23T04:41:54.522Z,14.60
2018-05-23T04:44:22.569Z,14.70
2018-05-23T04:46:51.419Z,14.80
2018-05-23T04:49:19.560Z,14.70
2018-05-23T04:51:47.639Z,14.80
2018-05-23T04:54:15.704Z,14.70
2018-05-23T04:56:43.819Z,14.70
2018-05-23T04:59:11.895Z,14.80
2018-05-23T05:01:39.945Z,14.80
2018-05-23T05:04:08.393Z,14.80
2018-05-23T05:06:36.494Z,14.80
2018-05-23T05:09:05.466Z,14.90
2018-05-23T05:11:33.568Z,14.90
2018-05-23T05:14:01.859Z,15.00
2018-05-23T05:16:29.923Z,15.00
2018-05-23T05:18:58.000Z,15.10
2018-05-23T05:21:26.383Z,15.00
2018-05-23T05:23:54.925Z,15.00
2018-05-23T05:26:22.987Z,15.20
2018-05-23T05:28:51.211Z,15.20
2018-05-23T05:31:19.289Z,15.30
2018-05-23T05:33:47.351Z,15.20
2018-05-23T05:36:15.729Z,15.30
2018-05-23T05:38:43.857Z,15.10
2018-05-23T05:41:12.673Z,15.00
2018-05-23T05:43:41.159Z,15.00
2018-05-23T05:46:09.242Z,14.80
2018-05-23T05:48:37.301Z,15.00
2018-05-23T05:51:05.690Z,15.10
2018-05-23T05:53:33.783Z,15.20
2018-05-23T05:56:02.618Z,15.20
2018-05-23T05:58:31.134Z,15.20
2018-05-23T06:00:59.224Z,15.30
2018-05-23T06:03:28.060Z,15.40
2018-05-23T06:05:56.568Z,15.40
2018-05-23T06:08:24.652Z,15.60
2018-05-23T06:10:52.718Z,15.60
2018-05-23T06:13:21.092Z,15.70
2018-05-23T06:15:49.168Z,15.70
2018-05-23T06:18:17.240Z,15.50
2018-05-23T06:20:45.640Z,15.40
2018-05-23T06:23:14.471Z,15.50
2018-05-23T06:25:42.846Z,15.50
2018-05-23T06:28:11.066Z,15.40
2018-05-23T06:30:39.132Z,15.50
2018-05-23T06:33:07.196Z,15.50
2018-05-23T06:35:35.608Z,15.40
2018-05-23T06:38:04.446Z,15.50
2018-05-23T06:40:32.512Z,15.50
2018-05-23T06:43:01.026Z,15.70
2018-05-23T06:45:29.128Z,15.70
2018-05-23T06:47:57.195Z,15.80
2018-05-23T06:50:26.450Z,15.80
2018-05-23T06:52:54.536Z,15.80
2018-05-23T06:55:22.608Z,15.60
2018-05-23T06:57:51.280Z,15.70
2018-05-23T07:00:19.356Z,15.90
2018-05-23T07:02:47.432Z,16.10
2018-05-23T07:05:15.584Z,16.10
2018-05-23T07:07:43.658Z,16.30
2018-05-23T07:10:11.726Z,16.30
2018-05-23T07:12:40.045Z,16.30
2018-05-23T07:15:08.872Z,16.50
2018-05-23T07:17:36.985Z,16.40
2018-05-23T07:20:05.172Z,16.50
2018-05-23T07:22:33.233Z,16.50
2018-05-23T07:25:01.308Z,16.50
2018-05-23T07:27:29.849Z,16.50
2018-05-23T07:29:57.919Z,16.70
2018-05-23T07:32:26.411Z,16.70
2018-05-23T07:34:55.327Z,16.70
2018-05-23T07:37:23.404Z,16.60
2018-05-23T07:39:51.461Z,16.70
2018-05-23T07:42:20.183Z,16.80
2018-05-23T07:44:48.245Z,16.80
2018-05-23T07:47:16.327Z,16.80
2018-05-23T07:49:45.565Z,17.20
2018-05-23T07:52:13.623Z,17.20
2018-05-23T07:54:41.739Z,17.40
2018-05-23T07:57:10.385Z,17.30
2018-05-23T07:59:38.457Z,17.20
2018-05-23T08:02:06.543Z,17.30
2018-05-23T08:04:34.749Z,17.20
2018-05-23T08:07:02.809Z,17.10
2018-05-23T08:09:30.893Z,17.20
2018-05-23T08:11:59.482Z,16.90
2018-05-23T08:14:27.552Z,16.90
2018-05-23T08:16:55.621Z,16.90
2018-05-23T08:19:24.569Z,17.00
2018-05-23T08:21:52.669Z,17.10
2018-05-23T08:24:20.752Z,17.10
2018-05-23T08:26:49.331Z,17.30
2018-05-23T08:29:17.404Z,17.40
2018-05-23T08:31:45.479Z,17.40
2018-05-23T08:34:14.714Z,17.30
2018-05-23T08:36:43.553Z,17.10
2018-05-23T08:39:11.622Z,17.10
2018-05-23T08:41:40.772Z,16.90
2018-05-23T08:44:09.589Z,16.90
2018-05-23T08:46:37.662Z,16.90
2018-05-23T08:49:06.332Z,17.10
2018-05-23T08:51:34.402Z,17.10
2018-05-23T08:54:02.474Z,17.20
2018-05-23T08:56:30.800Z,17.30
2018-05-23T08:58:58.858Z,17.40
2018-05-23T09:01:26.916Z,17.50
2018-05-23T09:03:55.992Z,17.50
2018-05-23T09:06:24.068Z,17.70
2018-05-23T09:08:52.149Z,17.60
2018-05-23T09:11:21.128Z,17.60
2018-05-23T09:13:49.196Z,17.60
2018-05-23T09:16:17.271Z,17.80
2018-05-23T09:18:45.833Z,18.10
2018-05-23T09:21:14.633Z,18.30
2018-05-23T09:23:42.703Z,18.30
2018-05-23T09:26:11.449Z,18.40
2018-05-23T09:28:39.501Z,18.50
2018-05-23T09:31:07.582Z,18.70
2018-05-23T09:33:36.523Z,18.40
2018-05-23T09:36:04.593Z,18.50
2018-05-23T09:38:32.708Z,18.60
2018-05-23T09:41:01.664Z,18.30
2018-05-23T09:43:29.728Z,18.40
2018-05-23T09:45:57.819Z,18.30
2018-05-23T09:48:26.076Z,18.50
2018-05-23T09:50:54.146Z,18.70
2018-05-23T09:53:22.218Z,18.50
2018-05-23T09:55:51.009Z,18.60
2018-05-23T09:58:19.087Z,18.90
2018-05-23T10:00:47.155Z,19.00
2018-05-23T10:03:16.142Z,19.00
2018-05-23T10:05:44.224Z,19.30
2018-05-23T10:08:12.428Z,19.40
2018-05-23T10:10:40.667Z,19.60
2018-05-23T10:13:08.741Z,19.80
2018-05-23T10:15:37.267Z,20.00
2018-05-23T10:18:05.562Z,20.50
2018-05-23T10:20:34.404Z,20.50
2018-05-23T10:23:02.697Z,20.50
2018-05-23T10:25:31.431Z,20.60
2018-05-23T10:28:00.236Z,20.80
2018-05-23T10:30:28.751Z,20.80
2018-05-23T10:32:57.298Z,20.80
2018-05-23T10:35:25.382Z,20.70
2018-05-23T10:37:53.879Z,21.00
2018-05-23T10:40:22.625Z,21.40
2018-05-23T10:42:51.441Z,22.00
2018-05-23T10:45:19.640Z,21.90
2018-05-23T10:47:48.377Z,22.00
2018-05-23T10:50:17.181Z,21.50
2018-05-23T10:52:45.688Z,21.50
2018-05-23T10:55:14.430Z,21.20
2018-05-23T10:57:43.236Z,21.50
2018-05-23T11:00:11.779Z,21.40
2018-05-23T11:02:40.298Z,21.60
2018-05-23T11:05:08.364Z,21.40
2018-05-23T11:07:36.882Z,20.70
2018-05-23T11:10:05.080Z,21.20
2018-05-23T11:12:33.128Z,21.40
2018-05-23T11:15:01.518Z,21.80
2018-05-23T11:17:29.642Z,22.20
2018-05-23T11:19:57.708Z,22.30
2018-05-23T11:22:25.921Z,22.70
2018-05-23T11:24:54.468Z,22.90
2018-05-23T11:27:22.536Z,22.80
2018-05-23T11:29:51.063Z,22.80
2018-05-23T11:32:19.612Z,22.90
2018-05-23T11:34:47.678Z,23.00
2018-05-23T11:37:16.208Z,22.90
2018-05-23T11:39:44.748Z,23.30
2018-05-23T11:42:12.811Z,23.00
2018-05-23T11:44:41.338Z,23.30
2018-05-23T11:47:09.757Z,22.70
2018-05-23T11:49:38.559Z,22.50
2018-05-23T11:52:07.204Z,22.50
2018-05-23T11:54:35.689Z,22.50
2018-05-23T11:57:03.685Z,22.70
2018-05-23T11:59:32.221Z,22.40
2018-05-23T12:02:00.948Z,22.80
2018-05-23T12:04:29.746Z,23.50
2018-05-23T12:06:58.273Z,23.40
2018-05-23T12:09:27.005Z,23.00
2018-05-23T12:11:55.809Z,23.10
2018-05-23T12:14:24.356Z,23.10
2018-05-23T12:16:53.484Z,23.70
2018-05-23T12:19:21.555Z,23.60
2018-05-23T12:21:50.085Z,24.00
2018-05-23T12:24:18.814Z,23.80
2018-05-23T12:26:47.605Z,23.70
2018-05-23T12:29:16.131Z,23.70
2018-05-23T12:31:44.687Z,23.60
2018-05-23T12:34:12.738Z,23.40
2018-05-23T12:36:40.960Z,23.50
2018-05-23T12:39:09.695Z,23.60
2018-05-23T12:41:37.725Z,23.60
2018-05-23T12:44:06.093Z,23.60
2018-05-23T12:46:34.833Z,23.60
2018-05-23T12:49:03.629Z,24.00
2018-05-23T12:51:31.830Z,23.90
2018-05-23T12:54:00.058Z,24.40
2018-05-23T12:56:28.104Z,24.80
2018-05-23T12:58:56.360Z,25.20
2018-05-23T13:01:24.906Z,25.40
2018-05-23T13:03:52.962Z,25.20
2018-05-23T13:06:21.492Z,25.40
2018-05-23T13:08:49.928Z,25.40
2018-05-23T13:11:18.769Z,25.70
2018-05-23T13:13:47.248Z,25.70
2018-05-23T13:16:15.796Z,25.90
2018-05-23T13:18:43.884Z,26.00
2018-05-23T13:21:12.375Z,25.50
2018-05-23T13:23:40.574Z,24.90
2018-05-23T13:26:08.648Z,24.70
2018-05-23T13:28:37.200Z,25.10
2018-05-23T13:31:05.418Z,25.50
2018-05-23T13:33:33.476Z,25.90
2018-05-23T13:36:01.636Z,26.20
2018-05-23T13:38:30.159Z,26.30
2018-05-23T13:40:58.969Z,26.70
2018-05-23T13:43:27.473Z,26.60
2018-05-23T13:45:55.773Z,26.50
2018-05-23T13:48:23.834Z,25.90
2018-05-23T13:50:51.991Z,25.50
2018-05-23T13:53:20.735Z,25.40
2018-05-23T13:55:48.773Z,25.20
2018-05-23T13:58:16.943Z,24.60
2018-05-23T14:00:45.375Z,24.70
2018-05-23T14:03:13.463Z,24.70
2018-05-23T14:05:41.957Z,24.70
2018-05-23T14:08:10.201Z,24.90
2018-05-23T14:10:38.267Z,24.80
2018-05-23T14:13:06.401Z,24.90
2018-05-23T14:15:34.738Z,25.10
2018-05-23T14:18:02.787Z,25.10
2018-05-23T14:20:31.319Z,25.40
2018-05-23T14:22:59.855Z,25.90
2018-05-23T14:25:27.919Z,26.30
2018-05-23T14:27:56.145Z,26.40
2018-05-23T14:30:24.907Z,26.40
2018-05-23T14:32:52.945Z,26.30
2018-05-23T14:35:21.586Z,26.50
2018-05-23T14:37:50.127Z,26.30
2018-05-23T14:40:18.188Z,26.70
2018-05-23T14:42:46.411Z,26.90
2018-05-23T14:45:14.949Z,27.20
2018-05-23T14:47:43.021Z,27.50
2018-05-23T14:50:11.567Z,27.50
2018-05-23T14:52:39.829Z,26.80
2018-05-23T14:55:07.901Z,26.70
2018-05-23T14:57:36.016Z,26.00
2018-05-23T15:00:04.490Z,25.70
2018-05-23T15:02:32.548Z,25.10
2018-05-23T15:05:00.892Z,25.10
2018-05-23T15:07:29.630Z,24.70
2018-05-23T15:09:58.429Z,24.40
2018-05-23T15:12:26.591Z,24.40
2018-05-23T15:14:55.179Z,24.90
2018-05-23T15:17:23.240Z,25.10
2018-05-23T15:19:51.773Z,25.30
2018-05-23T15:22:20.320Z,25.50
2018-05-23T15:24:48.372Z,25.50
2018-05-23T15:27:16.929Z,25.10
2018-05-23T15:29:45.460Z,25.30
2018-05-23T15:32:13.507Z,25.50
2018-05-23T15:34:41.767Z,25.60
2018-05-23T15:37:10.709Z,25.30
2018-05-23T15:39:38.763Z,25.30
2018-05-23T15:42:07.003Z,25.20
2018-05-23T15:44:35.915Z,25.00
2018-05-23T15:47:04.706Z,24.90
2018-05-23T15:49:32.947Z,24.90
2018-05-23T15:52:01.469Z,25.00
2018-05-23T15:54:29.534Z,25.40
2018-05-23T15:56:57.769Z,25.90
2018-05-23T15:59:26.303Z,26.10
2018-05-23T16:01:54.361Z,26.30
2018-05-23T16:04:22.909Z,26.40
2018-05-23T16:06:52.380Z,26.50
2018-05-23T16:09:20.425Z,26.40
2018-05-23T16:11:48.659Z,26.40
2018-05-23T16:14:17.989Z,26.30
2018-05-23T16:16:46.790Z,26.10
2018-05-23T16:19:14.936Z,26.10
2018-05-23T16:21:43.237Z,26.10
2018-05-23T16:24:11.302Z,26.10
2018-05-23T16:26:39.836Z,25.40
2018-05-23T16:29:08.375Z,25.30
2018-05-23T16:31:36.427Z,25.30
2018-05-23T16:34:04.680Z,24.90
2018-05-23T16:36:33.205Z,25.00
2018-05-23T16:39:01.259Z,24.80
2018-05-23T16:41:29.362Z,24.70
2018-05-23T16:43:58.293Z,24.00
2018-05-23T16:46:26.347Z,24.00
2018-05-23T16:48:54.452Z,24.00
2018-05-23T16:51:23.053Z,24.10
2018-05-23T16:53:51.115Z,24.40
2018-05-23T16:56:19.226Z,24.50
2018-05-23T16:58:47.687Z,24.70
2018-05-23T17:01:15.752Z,24.70
2018-05-23T17:03:44.296Z,24.10
2018-05-23T17:06:13.015Z,23.90
2018-05-23T17:08:41.856Z,23.50
2018-05-23T17:11:10.343Z,23.50
2018-05-23T17:13:38.881Z,23.40
2018-05-23T17:16:06.952Z,22.60
2018-05-23T17:18:35.464Z,22.20
2018-05-23T17:21:03.708Z,22.20
2018-05-23T17:23:31.773Z,22.30
2018-05-23T17:25:59.972Z,22.30
2018-05-23T17:28:28.131Z,22.00
2018-05-23T17:30:56.192Z,22.10
2018-05-23T17:33:24.710Z,21.70
2018-05-23T17:35:52.790Z,21.70
2018-05-23T17:38:20.842Z,21.20
2018-05-23T17:40:49.333Z,21.30
2018-05-23T17:43:17.891Z,21.40
2018-05-23T17:45:45.966Z,21.60
2018-05-23T17:48:14.472Z,21.90
2018-05-23T17:50:43.205Z,22.10
2018-05-23T17:53:11.246Z,22.10
2018-05-23T17:55:39.904Z,22.30
2018-05-23T17:58:08.647Z,22.50
2018-05-23T18:00:37.446Z,22.40
2018-05-23T18:03:05.567Z,22.30
2018-05-23T18:05:34.058Z,21.80
2018-05-23T18:08:02.168Z,21.70
2018-05-23T18:10:30.604Z,21.60
2018-05-23T18:12:58.746Z,21.60
2018-05-23T18:15:26.811Z,21.00
2018-05-23T18:17:55.035Z,21.20
2018-05-23T18:20:23.080Z,21.20
2018-05-23T18:22:51.143Z,21.10
2018-05-23T18:25:19.257Z,20.90
2018-05-23T18:27:48.574Z,20.40
2018-05-23T18:30:17.391Z,20.30
2018-05-23T18:32:46.337Z,20.20
2018-05-23T18:35:15.365Z,20.10
2018-05-23T18:37:43.441Z,20.10
2018-05-23T18:40:11.643Z,20.00
2018-05-23T18:42:40.184Z,19.80
2018-05-23T18:45:08.251Z,19.80
2018-05-23T18:47:36.474Z,19.80
2018-05-23T18:50:05.027Z,19.70
2018-05-23T18:52:33.073Z,19.80
2018-05-23T18:55:01.305Z,19.80
2018-05-23T18:57:29.563Z,19.70
2018-05-23T18:59:57.625Z,19.60
2018-05-23T19:02:26.269Z,19.60
2018-05-23T19:04:54.684Z,19.50
2018-05-23T19:07:22.736Z,19.50
2018-05-23T19:09:50.957Z,19.40
2018-05-23T19:12:19.501Z,19.30
2018-05-23T19:14:47.568Z,19.30
2018-05-23T19:17:15.772Z,19.20
2018-05-23T19:19:44.046Z,19.20
2018-05-23T19:22:12.081Z,19.10
2018-05-23T19:24:40.629Z,19.00
2018-05-23T19:27:09.860Z,18.90
2018-05-23T19:29:46.842Z,18.90
2018-05-23T19:32:15.129Z,18.90
2018-05-23T19:34:43.206Z,18.90
2018-05-23T19:37:11.306Z,18.90
2018-05-23T19:39:39.656Z,18.90
2018-05-23T19:42:07.723Z,18.90
2018-05-23T19:44:35.934Z,19.00
2018-05-23T19:47:04.182Z,18.80
2018-05-23T19:49:32.252Z,18.70
2018-05-23T19:52:00.450Z,18.60
2018-05-23T19:54:28.992Z,18.40
2018-05-23T19:56:57.054Z,18.30
2018-05-23T19:59:25.584Z,18.20
2018-05-23T20:01:53.844Z,18.20
2018-05-23T20:04:21.902Z,18.10
2018-05-23T20:06:51.052Z,18.10
2018-05-23T20:09:20.496Z,18.10
2018-05-23T20:11:48.562Z,18.10
2018-05-23T20:14:17.243Z,18.20
2018-05-23T20:16:45.631Z,18.10
2018-05-23T20:19:13.695Z,18.10
2018-05-23T20:21:41.903Z,18.20
2018-05-23T20:24:10.648Z,18.20
2018-05-23T20:26:39.454Z,18.10
2018-05-23T20:29:07.572Z,18.10
2018-05-23T20:31:35.892Z,17.90
2018-05-23T20:34:03.962Z,17.90
2018-05-23T20:36:32.774Z,17.80
2018-05-23T20:39:01.142Z,17.80
2018-05-23T20:41:29.550Z,17.70
2018-05-23T20:43:57.628Z,17.60
2018-05-23T20:46:25.804Z,17.40
2018-05-23T20:48:53.911Z,17.30
2018-05-23T20:51:21.998Z,17.30
2018-05-23T20:53:57.368Z,17.30
2018-05-23T20:56:25.432Z,17.30
2018-05-23T20:58:53.505Z,17.10
2018-05-23T21:01:21.699Z,17.00
2018-05-23T21:03:49.774Z,17.10
2018-05-23T21:06:17.829Z,17.10
2018-05-23T21:08:46.039Z,17.00
2018-05-23T21:11:14.879Z,16.80
2018-05-23T21:13:42.945Z,16.70
2018-05-23T21:16:11.934Z,16.50
2018-05-23T21:18:40.007Z,16.70
2018-05-23T21:21:08.062Z,16.70
2018-05-23T21:23:36.913Z,16.70
2018-05-23T21:26:04.945Z,16.70
2018-05-23T21:28:33.025Z,16.70
2018-05-23T21:31:01.909Z,16.70
2018-05-23T21:33:29.978Z,16.40
2018-05-23T21:35:58.053Z,16.30
2018-05-23T21:38:27.045Z,16.20
2018-05-23T21:40:55.298Z,16.10
2018-05-23T21:43:23.368Z,16.00
2018-05-23T21:45:52.197Z,16.00
2018-05-23T21:48:21.018Z,15.90
2018-05-23T21:50:49.864Z,15.90
2018-05-23T21:53:18.095Z,15.90
2018-05-23T21:55:46.161Z,15.90
2018-05-23T21:58:14.248Z,15.90
2018-05-23T22:00:42.738Z,15.80
2018-05-23T22:03:10.804Z,15.70
2018-05-23T22:05:38.886Z,15.60
2018-05-23T22:08:07.330Z,15.60
2018-05-23T22:10:35.382Z,15.60
2018-05-23T22:13:03.463Z,15.70
2018-05-23T22:15:32.398Z,15.70
2018-05-23T22:18:00.464Z,15.70
2018-05-23T22:20:28.541Z,15.70
2018-05-23T22:22:57.542Z,15.80
2018-05-23T22:25:25.608Z,15.90
2018-05-23T22:27:53.686Z,15.90
2018-05-23T22:30:22.755Z,16.00
2018-05-23T22:32:50.743Z,16.00
2018-05-23T22:35:18.812Z,16.00
2018-05-23T22:37:47.510Z,16.00
2018-05-23T22:40:15.593Z,16.00
2018-05-23T22:42:43.673Z,16.10
2018-05-23T22:45:12.014Z,16.20
2018-05-23T22:47:40.103Z,16.30
2018-05-23T22:50:08.177Z,16.30
2018-05-23T22:52:38.082Z,16.30
2018-05-23T22:55:06.148Z,16.30
2018-05-23T22:57:34.232Z,16.40
2018-05-23T23:00:02.595Z,16.30
2018-05-23T23:02:30.649Z,16.30
2018-05-23T23:04:58.758Z,16.30
2018-05-23T23:07:27.130Z,16.30
2018-05-23T23:09:55.188Z,16.20
2018-05-23T23:12:24.036Z,16.20
2018-05-23T23:14:53.789Z,16.20
2018-05-23T23:17:21.846Z,16.20
2018-05-23T23:19:49.921Z,16.30
2018-05-23T23:22:29.882Z,16.30
2018-05-23T23:24:58.495Z,16.20
2018-05-23T23:27:26.557Z,16.10
2018-05-23T23:29:55.107Z,16.10
2018-05-23T23:32:23.259Z,16.10
2018-05-23T23:34:52.091Z,16.10
2018-05-23T23:37:20.561Z,16.10
2018-05-23T23:39:48.797Z,16.00
2018-05-23T23:42:17.633Z,16.10
2018-05-23T23:44:45.841Z,16.10
2018-05-23T23:47:14.229Z,16.10
2018-05-23T23:49:43.065Z,16.10
2018-05-23T23:52:11.748Z,16.10
2018-05-23T23:54:40.065Z,16.10
2018-05-23T23:57:08.833Z,16.00
2018-05-23T23:59:37.184Z,16.00
